createdAt,value
2018-07-25T00:00:26.252Z,19.53
2018-07-25T00:02:54.418Z,18.43
2018-07-25T00:05:22.579Z,17.53
2018-07-25T00:07:50.757Z,18.80
2018-07-25T00:10:19.384Z,18.57
2018-07-25T00:12:47.541Z,19.37
2018-07-25T00:15:15.682Z,18.90
2018-07-25T00:17:43.862Z,18.50
2018-07-25T00:20:12.039Z,19.00
2018-07-25T00:22:40.210Z,18.67
2018-07-25T00:25:08.396Z,18.67
2018-07-25T00:27:36.787Z,18.67
2018-07-25T00:30:05.346Z,18.63
2018-07-25T00:32:33.503Z,19.73
2018-07-25T00:35:01.672Z,19.70
2018-07-25T00:40:12.130Z,21.30
2018-07-25T00:42:41.322Z,21.27
2018-07-25T00:45:09.617Z,22.33
2018-07-25T00:47:37.763Z,21.47
2018-07-25T00:50:05.930Z,21.07
2018-07-25T00:52:34.079Z,19.53
2018-07-25T00:55:02.299Z,20.17
2018-07-25T00:57:30.455Z,21.90
2018-07-25T00:59:58.620Z,21.00
2018-07-25T01:02:26.835Z,19.90
2018-07-25T01:04:54.996Z,20.47
2018-07-25T01:07:24.089Z,18.93
2018-07-25T01:09:52.273Z,18.87
2018-07-25T01:12:20.469Z,16.43
2018-07-25T01:14:48.630Z,17.57
2018-07-25T01:17:16.803Z,18.57
2018-07-25T01:19:45.075Z,18.57
2018-07-25T01:22:13.227Z,19.20
2018-07-25T01:24:41.406Z,19.23
2018-07-25T01:27:09.634Z,19.73
2018-07-25T01:29:37.816Z,18.83
2018-07-25T01:32:06.043Z,18.63
2018-07-25T01:34:35.245Z,19.10
2018-07-25T01:37:03.431Z,19.97
2018-07-25T01:39:31.864Z,20.03
2018-07-25T01:42:00.021Z,20.17
2018-07-25T01:44:28.176Z,19.10
2018-07-25T01:46:56.455Z,19.67
2018-07-25T01:49:24.608Z,18.87
2018-07-25T01:51:52.778Z,18.10
2018-07-25T01:54:20.949Z,19.73
2018-07-25T01:56:49.106Z,18.67
2018-07-25T01:59:17.275Z,19.27
2018-07-25T02:01:45.431Z,20.27
2018-07-25T02:04:13.648Z,18.83
2018-07-25T02:06:41.818Z,20.23
2018-07-25T02:09:10.720Z,20.13
2018-07-25T02:11:38.902Z,20.57
2018-07-25T02:14:07.122Z,19.43
2018-07-25T02:16:35.375Z,20.80
2018-07-25T02:19:03.562Z,20.17
2018-07-25T02:21:31.731Z,19.10
2018-07-25T02:23:59.908Z,19.33
2018-07-25T02:26:28.050Z,19.77
2018-07-25T02:28:56.211Z,18.50
2018-07-25T02:31:24.379Z,19.37
2018-07-25T02:33:57.960Z,20.47
2018-07-25T02:36:26.124Z,19.97
2018-07-25T02:38:54.277Z,19.40
2018-07-25T02:41:22.464Z,19.23
2018-07-25T02:43:50.673Z,19.10
2018-07-25T02:46:18.961Z,18.53
2018-07-25T02:48:47.144Z,19.17
2018-07-25T02:51:15.348Z,20.47
2018-07-25T02:53:43.519Z,19.57
2018-07-25T02:56:11.720Z,19.83
2018-07-25T02:58:39.869Z,20.37
2018-07-25T03:01:08.032Z,20.07
2018-07-25T03:03:36.196Z,20.50
2018-07-25T03:06:04.361Z,21.07
2018-07-25T03:08:32.539Z,21.47
2018-07-25T03:11:00.695Z,20.93
2018-07-25T03:13:28.869Z,21.13
2018-07-25T03:16:04.018Z,21.43
2018-07-25T03:18:32.323Z,21.00
2018-07-25T03:21:01.168Z,21.67
2018-07-25T03:23:30.180Z,21.03
2018-07-25T03:25:58.356Z,21.50
2018-07-25T03:28:27.231Z,20.77
2018-07-25T03:30:55.465Z,21.23
2018-07-25T03:33:24.499Z,20.97
2018-07-25T03:35:52.772Z,21.60
2018-07-25T03:38:20.956Z,20.17
2018-07-25T03:40:49.412Z,20.37
2018-07-25T03:43:17.587Z,19.60
2018-07-25T03:45:46.212Z,19.93
2018-07-25T03:48:14.439Z,20.20
2018-07-25T03:50:42.643Z,21.23
2018-07-25T03:53:10.831Z,20.60
2018-07-25T03:55:39.102Z,21.07
2018-07-25T03:58:07.478Z,21.63
2018-07-25T04:00:35.763Z,21.97
2018-07-25T04:03:03.928Z,22.93
2018-07-25T04:05:32.084Z,22.17
2018-07-25T04:08:00.293Z,23.27
2018-07-25T04:10:28.471Z,23.67
2018-07-25T04:12:56.639Z,23.83
2018-07-25T04:15:24.833Z,23.13
2018-07-25T04:17:53.013Z,23.43
2018-07-25T04:20:21.195Z,22.57
2018-07-25T04:22:49.362Z,23.03
2018-07-25T04:25:17.580Z,22.93
2018-07-25T04:27:46.474Z,22.37
2018-07-25T04:30:15.876Z,21.83
2018-07-25T04:32:44.681Z,22.30
2018-07-25T04:35:14.071Z,21.60
2018-07-25T04:37:42.868Z,22.43
2018-07-25T04:40:11.073Z,21.90
2018-07-25T04:42:39.336Z,21.60
2018-07-25T04:45:09.211Z,22.37
2018-07-25T04:47:37.430Z,22.80
2018-07-25T04:50:05.736Z,23.50
2018-07-25T04:52:34.191Z,22.37
2018-07-25T04:55:02.468Z,21.30
2018-07-25T04:57:30.675Z,20.97
2018-07-25T04:59:59.107Z,20.43
2018-07-25T05:02:27.372Z,21.10
2018-07-25T05:04:55.582Z,20.50
2018-07-25T05:07:23.767Z,20.70
2018-07-25T05:09:51.944Z,21.37
2018-07-25T05:12:20.154Z,21.60
2018-07-25T05:14:48.356Z,20.37
2018-07-25T05:17:16.580Z,19.23
2018-07-25T05:19:44.787Z,20.47
2018-07-25T05:22:12.979Z,20.23
2018-07-25T05:24:41.195Z,21.60
2018-07-25T05:27:09.404Z,22.33
2018-07-25T05:29:37.576Z,19.10
2018-07-25T05:32:05.846Z,21.23
2018-07-25T05:34:34.042Z,18.70
2018-07-25T05:37:02.238Z,22.10
2018-07-25T05:39:30.472Z,20.80
2018-07-25T05:41:58.658Z,21.30
2018-07-25T05:44:26.876Z,19.53
2018-07-25T05:46:55.057Z,20.13
2018-07-25T05:49:23.283Z,18.80
2018-07-25T05:51:51.473Z,18.13
2018-07-25T05:54:19.660Z,20.17
2018-07-25T05:56:47.889Z,19.83
2018-07-25T05:59:16.069Z,20.00
2018-07-25T06:01:44.539Z,19.90
2018-07-25T06:04:12.774Z,21.20
2018-07-25T06:06:40.966Z,20.43
2018-07-25T06:09:10.134Z,20.53
2018-07-25T06:11:38.895Z,20.07
2018-07-25T06:14:07.141Z,20.13
2018-07-25T06:16:35.546Z,21.10
2018-07-25T06:19:03.744Z,19.73
2018-07-25T06:21:32.097Z,20.40
2018-07-25T06:24:00.026Z,19.67
2018-07-25T06:26:28.203Z,20.53
2018-07-25T06:28:56.394Z,19.87
2018-07-25T06:31:24.596Z,20.00
2018-07-25T06:33:52.786Z,20.03
2018-07-25T06:36:21.063Z,19.73
2018-07-25T06:38:49.238Z,19.87
2018-07-25T06:41:17.772Z,20.17
2018-07-25T06:43:46.074Z,18.73
2018-07-25T06:46:14.264Z,20.03
2018-07-25T06:48:42.476Z,17.77
2018-07-25T06:51:10.636Z,18.97
2018-07-25T06:53:39.266Z,18.03
2018-07-25T06:56:10.853Z,17.00
2018-07-25T06:58:41.700Z,17.00
2018-07-25T07:01:13.452Z,17.80
2018-07-25T07:03:41.635Z,16.70
2018-07-25T07:06:09.799Z,17.50
2018-07-25T07:08:37.981Z,17.03
2018-07-25T07:11:06.240Z,16.20
2018-07-25T07:13:34.443Z,15.83
2018-07-25T07:16:02.605Z,16.67
2018-07-25T07:18:30.759Z,16.20
2018-07-25T07:20:58.999Z,16.42
2018-07-25T07:23:27.174Z,16.32
2018-07-25T07:25:55.386Z,15.30
2018-07-25T07:28:23.543Z,15.10
2018-07-25T07:30:51.731Z,14.65
2018-07-25T07:33:19.916Z,15.00
2018-07-25T07:35:48.113Z,14.73
2018-07-25T07:38:16.321Z,15.23
2018-07-25T07:40:44.507Z,16.30
2018-07-25T07:43:12.705Z,15.23
2018-07-25T07:45:40.892Z,14.80
2018-07-25T07:48:09.112Z,14.80
2018-07-25T07:50:37.295Z,15.08
2018-07-25T07:53:05.598Z,13.83
2018-07-25T07:55:33.811Z,13.90
2018-07-25T07:58:01.985Z,14.07
2018-07-25T08:00:30.165Z,13.98
2018-07-25T08:02:58.373Z,12.63
2018-07-25T08:05:26.562Z,11.85
2018-07-25T08:07:54.783Z,12.00
2018-07-25T08:10:23.115Z,13.25
2018-07-25T08:12:51.361Z,13.95
2018-07-25T08:15:19.611Z,13.28
2018-07-25T08:17:47.845Z,12.37
2018-07-25T08:20:16.064Z,12.80
2018-07-25T08:22:44.250Z,12.05
2018-07-25T08:25:12.431Z,13.03
2018-07-25T08:27:40.655Z,12.05
2018-07-25T08:30:08.964Z,11.78
2018-07-25T08:32:37.193Z,13.20
2018-07-25T08:35:05.395Z,11.70
2018-07-25T08:37:33.602Z,11.85
2018-07-25T08:40:01.928Z,11.38
2018-07-25T08:42:30.317Z,12.98
2018-07-25T08:44:58.539Z,11.28
2018-07-25T08:47:26.723Z,10.88
2018-07-25T08:49:54.916Z,11.60
2018-07-25T08:52:23.187Z,11.85
2018-07-25T08:54:51.449Z,11.35
2018-07-25T08:57:19.795Z,10.53
2018-07-25T08:59:47.993Z,11.45
2018-07-25T09:02:16.191Z,9.73
2018-07-25T09:04:44.463Z,10.18
2018-07-25T09:07:12.736Z,9.73
2018-07-25T09:09:40.959Z,9.88
2018-07-25T09:12:09.113Z,9.70
2018-07-25T09:14:37.364Z,9.08
2018-07-25T09:17:05.609Z,9.60
2018-07-25T09:19:33.779Z,9.60
2018-07-25T09:22:02.175Z,9.50
2018-07-25T09:24:30.475Z,9.30
2018-07-25T09:26:58.652Z,8.78
2018-07-25T09:29:26.857Z,8.58
2018-07-25T09:31:54.820Z,8.60
2018-07-25T09:34:23.084Z,8.83
2018-07-25T09:36:51.203Z,7.75
2018-07-25T09:39:19.383Z,8.25
2018-07-25T09:41:47.588Z,7.60
2018-07-25T09:44:15.787Z,7.67
2018-07-25T09:46:44.199Z,7.35
2018-07-25T09:49:12.711Z,7.42
2018-07-25T09:51:42.385Z,7.45
2018-07-25T09:54:10.591Z,6.80
2018-07-25T09:56:39.032Z,6.92
2018-07-25T09:59:07.313Z,6.80
2018-07-25T10:01:35.485Z,7.58
2018-07-25T10:04:03.663Z,7.05
2018-07-25T10:06:31.827Z,6.80
2018-07-25T10:09:00.011Z,7.05
2018-07-25T10:11:28.167Z,7.67
2018-07-25T10:13:56.515Z,6.92
2018-07-25T10:16:24.689Z,7.05
2018-07-25T10:18:52.989Z,6.40
2018-07-25T10:21:21.275Z,6.55
2018-07-25T10:23:49.460Z,6.45
2018-07-25T10:26:17.635Z,6.45
2018-07-25T10:28:45.791Z,6.70
2018-07-25T10:31:13.990Z,7.08
2018-07-25T10:33:42.151Z,6.78
2018-07-25T10:36:10.307Z,6.33
2018-07-25T10:38:39.223Z,6.36
2018-07-25T10:41:07.415Z,6.30
2018-07-25T10:43:36.196Z,6.87
2018-07-25T10:46:04.866Z,6.17
2018-07-25T10:48:33.062Z,6.55
2018-07-25T10:51:01.217Z,6.70
2018-07-25T10:53:29.418Z,5.92
2018-07-25T10:55:57.606Z,6.53
2018-07-25T10:58:25.746Z,6.00
2018-07-25T11:00:53.703Z,6.47
2018-07-25T11:03:21.870Z,6.50
2018-07-25T11:05:50.070Z,5.97
2018-07-25T11:08:18.252Z,6.62
2018-07-25T11:10:47.828Z,6.90
2018-07-25T11:13:16.004Z,6.55
2018-07-25T11:15:44.149Z,6.47
2018-07-25T11:18:12.433Z,6.55
2018-07-25T11:20:40.635Z,6.62
2018-07-25T11:23:08.861Z,7.85
2018-07-25T11:25:37.014Z,6.33
2018-07-25T11:28:05.258Z,6.10
2018-07-25T11:30:33.516Z,6.00
2018-07-25T11:33:01.698Z,5.70
2018-07-25T11:35:30.154Z,6.12
2018-07-25T11:37:58.386Z,6.05
2018-07-25T11:40:26.546Z,5.50
2018-07-25T11:42:54.764Z,5.42
2018-07-25T11:45:23.057Z,6.17
2018-07-25T11:47:51.250Z,6.20
2018-07-25T11:50:19.686Z,5.65
2018-07-25T11:52:47.885Z,6.28
2018-07-25T11:55:17.662Z,5.40
2018-07-25T11:57:47.119Z,5.80
2018-07-25T12:00:15.332Z,5.45
2018-07-25T12:02:43.645Z,5.17
2018-07-25T12:05:11.987Z,5.60
2018-07-25T12:07:40.303Z,5.37
2018-07-25T12:10:08.605Z,5.67
2018-07-25T12:12:36.812Z,5.40
2018-07-25T12:15:06.927Z,5.83
2018-07-25T12:17:35.115Z,5.67
2018-07-25T12:20:03.297Z,5.60
2018-07-25T12:22:31.829Z,5.50
2018-07-25T12:25:00.088Z,5.62
2018-07-25T12:27:28.244Z,5.58
2018-07-25T12:29:56.451Z,5.83
2018-07-25T12:32:24.630Z,5.40
2018-07-25T12:34:52.823Z,5.67
2018-07-25T12:37:20.774Z,5.62
2018-07-25T12:39:49.119Z,5.25
2018-07-25T12:42:17.312Z,5.53
2018-07-25T12:44:45.476Z,5.40
2018-07-25T12:47:13.669Z,5.30
2018-07-25T12:49:42.175Z,5.00
2018-07-25T12:52:10.422Z,5.25
2018-07-25T12:54:39.003Z,5.40
2018-07-25T12:57:07.180Z,5.80
2018-07-25T12:59:35.352Z,6.08
2018-07-25T13:02:03.593Z,5.20
2018-07-25T13:04:31.727Z,5.55
2018-07-25T13:06:59.887Z,6.08
2018-07-25T13:09:28.180Z,5.25
2018-07-25T13:11:56.387Z,5.10
2018-07-25T13:14:40.427Z,5.97
2018-07-25T13:17:08.569Z,5.20
2018-07-25T13:19:36.777Z,5.20
2018-07-25T13:22:04.968Z,5.40
2018-07-25T13:24:33.263Z,5.20
2018-07-25T13:27:01.419Z,5.75
2018-07-25T13:29:29.582Z,5.72
2018-07-25T13:31:57.736Z,5.33
2018-07-25T13:34:26.232Z,5.40
2018-07-25T13:36:54.405Z,5.30
2018-07-25T13:39:22.688Z,5.40
2018-07-25T13:41:50.882Z,5.47
2018-07-25T13:44:19.078Z,5.28
2018-07-25T13:46:47.309Z,5.30
2018-07-25T13:49:15.571Z,5.60
2018-07-25T13:51:43.767Z,5.20
2018-07-25T13:54:11.976Z,5.12
2018-07-25T13:56:40.145Z,5.12
2018-07-25T13:59:08.536Z,4.97
2018-07-25T14:01:36.803Z,5.22
2018-07-25T14:04:04.985Z,5.22
2018-07-25T14:06:33.150Z,5.17
2018-07-25T14:09:01.339Z,4.92
2018-07-25T14:11:29.745Z,4.67
2018-07-25T14:13:57.895Z,4.20
2018-07-25T14:16:26.151Z,3.72
2018-07-25T14:18:54.308Z,3.50
2018-07-25T14:21:22.491Z,3.90
2018-07-25T14:23:50.782Z,3.58
2018-07-25T14:26:18.900Z,4.10
2018-07-25T14:28:47.168Z,4.55
2018-07-25T14:31:15.288Z,4.10
2018-07-25T14:33:43.468Z,4.05
2018-07-25T14:36:12.498Z,4.03
2018-07-25T14:38:40.757Z,4.42
2018-07-25T14:41:08.972Z,4.30
2018-07-25T14:43:37.389Z,4.17
2018-07-25T14:46:06.023Z,4.03
2018-07-25T14:48:34.267Z,4.10
2018-07-25T14:51:03.046Z,4.22
2018-07-25T14:53:31.248Z,4.78
2018-07-25T14:55:59.456Z,4.53
2018-07-25T14:58:27.668Z,4.45
2018-07-25T15:00:55.865Z,4.72
2018-07-25T15:03:24.146Z,4.55
2018-07-25T15:05:52.374Z,4.28
2018-07-25T15:08:20.576Z,4.80
2018-07-25T15:10:48.835Z,4.90
2018-07-25T15:13:17.085Z,4.17
2018-07-25T15:15:45.272Z,5.10
2018-07-25T15:18:13.499Z,4.92
2018-07-25T15:20:41.703Z,4.35
2018-07-25T15:23:09.876Z,4.45
2018-07-25T15:25:38.067Z,4.28
2018-07-25T15:28:06.251Z,4.58
2018-07-25T15:30:34.448Z,4.70
2018-07-25T15:33:03.107Z,4.65
2018-07-25T15:35:31.292Z,4.75
2018-07-25T15:37:59.548Z,4.87
2018-07-25T15:40:27.725Z,5.30
2018-07-25T15:42:55.902Z,6.00
2018-07-25T15:45:24.152Z,5.65
2018-07-25T15:47:52.411Z,5.72
2018-07-25T15:50:20.706Z,5.33
2018-07-25T15:52:48.923Z,5.60
2018-07-25T15:55:17.097Z,6.15
2018-07-25T15:57:45.489Z,5.72
2018-07-25T16:00:13.719Z,6.10
2018-07-25T16:02:41.921Z,5.72
2018-07-25T16:05:10.139Z,5.87
2018-07-25T16:07:38.339Z,5.72
2018-07-25T16:10:06.530Z,6.30
2018-07-25T16:12:34.819Z,6.30
2018-07-25T16:15:02.988Z,6.42
2018-07-25T16:17:31.179Z,5.97
2018-07-25T16:19:59.411Z,6.37
2018-07-25T16:22:28.763Z,6.92
2018-07-25T16:24:56.946Z,6.25
2018-07-25T16:27:25.160Z,6.28
2018-07-25T16:52:27.913Z,6.25
2018-07-25T16:54:56.298Z,7.50
2018-07-25T16:57:24.511Z,6.45
2018-07-25T16:59:52.678Z,6.55
2018-07-25T17:02:21.248Z,14.07
2018-07-25T17:04:49.459Z,16.07
2018-07-25T17:07:17.639Z,24.23
2018-07-25T17:09:46.375Z,7.55
2018-07-25T17:12:14.613Z,6.67
2018-07-25T17:14:42.787Z,7.45
2018-07-25T17:17:10.948Z,8.05
2018-07-25T17:19:39.152Z,7.72
2018-07-25T17:22:07.320Z,34.53
2018-07-25T17:24:35.514Z,13.22
2018-07-25T17:27:03.688Z,8.23
2018-07-25T17:29:31.854Z,7.70
2018-07-25T17:32:00.035Z,7.40
2018-07-25T17:34:28.193Z,7.80
2018-07-25T17:36:56.411Z,9.75
2018-07-25T17:39:24.676Z,6.85
2018-07-25T17:41:52.845Z,6.70
2018-07-25T17:44:21.048Z,6.40
2018-07-25T17:46:49.281Z,6.37
2018-07-25T17:49:17.429Z,6.20
2018-07-25T17:51:45.625Z,6.20
2018-07-25T17:54:13.918Z,5.72
2018-07-25T17:56:42.088Z,5.90
2018-07-25T17:59:10.427Z,5.97
2018-07-25T18:01:38.592Z,6.85
2018-07-25T18:04:06.791Z,6.50
2018-07-25T18:06:35.160Z,5.53
2018-07-25T18:09:03.597Z,5.45
2018-07-25T18:11:31.832Z,5.33
2018-07-25T18:14:05.394Z,5.22
2018-07-25T18:16:33.551Z,4.90
2018-07-25T18:19:01.781Z,5.28
2018-07-25T18:21:29.974Z,5.37
2018-07-25T18:23:58.118Z,5.65
2018-07-25T18:26:26.287Z,5.40
2018-07-25T18:28:54.548Z,5.20
2018-07-25T18:31:22.755Z,5.42
2018-07-25T18:33:50.943Z,5.33
2018-07-25T18:36:19.132Z,5.03
2018-07-25T18:38:47.327Z,5.42
2018-07-25T18:41:15.470Z,5.50
2018-07-25T18:43:43.640Z,6.12
2018-07-25T18:46:11.805Z,5.37
2018-07-25T18:48:40.139Z,5.78
2018-07-25T18:51:08.295Z,5.87
2018-07-25T18:53:37.305Z,5.47
2018-07-25T18:56:05.601Z,6.08
2018-07-25T18:58:33.815Z,4.95
2018-07-25T19:01:02.029Z,5.33
2018-07-25T19:03:30.264Z,5.42
2018-07-25T19:05:58.456Z,5.70
2018-07-25T19:08:26.823Z,5.42
2018-07-25T19:10:55.016Z,5.70
2018-07-25T19:13:28.779Z,5.62
2018-07-25T19:15:57.023Z,5.80
2018-07-25T19:18:25.176Z,5.53
2018-07-25T19:20:54.788Z,5.60
2018-07-25T19:23:22.929Z,5.72
2018-07-25T19:25:52.932Z,5.90
2018-07-25T19:28:21.226Z,5.73
2018-07-25T19:30:49.840Z,6.43
2018-07-25T19:33:17.989Z,6.10
2018-07-25T19:35:46.172Z,6.50
2018-07-25T19:38:14.420Z,6.63
2018-07-25T19:40:42.684Z,7.07
2018-07-25T19:43:10.887Z,7.00
2018-07-25T19:45:39.058Z,7.67
2018-07-25T19:48:07.232Z,7.60
2018-07-25T19:50:35.372Z,8.73
2018-07-25T19:53:03.584Z,8.00
2018-07-25T19:55:31.775Z,8.50
2018-07-25T19:58:00.042Z,9.17
2018-07-25T20:00:28.386Z,8.67
2018-07-25T20:02:56.527Z,9.53
2018-07-25T20:05:24.750Z,8.50
2018-07-25T20:07:53.068Z,8.47
2018-07-25T20:10:21.339Z,8.07
2018-07-25T20:12:49.749Z,8.00
2018-07-25T20:15:23.127Z,7.87
2018-07-25T20:17:51.095Z,7.37
2018-07-25T20:20:19.360Z,8.10
2018-07-25T20:22:47.584Z,8.43
2018-07-25T20:25:16.145Z,8.50
2018-07-25T20:27:44.403Z,8.97
2018-07-25T20:30:12.847Z,9.23
2018-07-25T20:32:41.227Z,9.30
2018-07-25T20:35:09.576Z,10.90
2018-07-25T20:37:37.887Z,16.30
2018-07-25T20:40:06.635Z,17.20
2018-07-25T20:42:34.910Z,15.10
2018-07-25T20:45:03.234Z,11.73
2018-07-25T20:47:31.205Z,10.13
2018-07-25T20:49:59.483Z,10.13
2018-07-25T20:52:27.760Z,9.50
2018-07-25T20:54:56.175Z,9.53
2018-07-25T20:57:24.466Z,9.60
2018-07-25T20:59:52.651Z,9.30
2018-07-25T21:02:20.965Z,9.30
2018-07-25T21:04:49.220Z,9.77
2018-07-25T21:07:17.347Z,9.73
2018-07-25T21:09:45.615Z,9.40
2018-07-25T21:12:13.847Z,9.57
2018-07-25T21:14:42.162Z,9.83
2018-07-25T21:17:10.545Z,10.33
2018-07-25T21:19:45.508Z,9.80
2018-07-25T21:22:13.757Z,10.40
2018-07-25T21:24:42.068Z,10.20
2018-07-25T21:27:10.387Z,11.13
2018-07-25T21:29:38.673Z,10.90
2018-07-25T21:32:06.914Z,10.30
2018-07-25T21:34:35.435Z,11.00
2018-07-25T21:37:03.778Z,10.63
2018-07-25T21:39:32.126Z,10.50
2018-07-25T21:42:00.508Z,10.67
2018-07-25T21:44:28.812Z,10.80
2018-07-25T21:46:57.079Z,11.50
2018-07-25T21:49:25.551Z,11.60
2018-07-25T21:51:54.064Z,11.40
2018-07-25T21:54:22.367Z,10.53
2018-07-25T21:56:50.557Z,11.87
2018-07-25T21:59:19.003Z,11.23
2018-07-25T22:01:47.313Z,11.23
2018-07-25T22:04:15.480Z,10.60
2018-07-25T22:06:43.656Z,10.83
2018-07-25T22:09:12.466Z,11.20
2018-07-25T22:11:41.125Z,10.53
2018-07-25T22:14:09.107Z,10.60
2018-07-25T22:16:37.297Z,11.60
2018-07-25T22:19:05.591Z,10.80
2018-07-25T22:21:33.854Z,11.37
2018-07-25T22:24:02.176Z,11.07
2018-07-25T22:26:30.343Z,11.07
2018-07-25T22:28:58.533Z,11.27
2018-07-25T22:31:26.462Z,11.33
2018-07-25T22:33:54.639Z,11.23
2018-07-25T22:36:22.830Z,11.17
2018-07-25T22:38:51.049Z,11.70
2018-07-25T22:41:19.221Z,11.30
2018-07-25T22:43:47.434Z,12.03
2018-07-25T22:46:15.656Z,11.97
2018-07-25T22:48:43.852Z,11.73
2018-07-25T22:51:12.041Z,11.67
2018-07-25T22:53:40.232Z,11.77
2018-07-25T22:56:08.422Z,12.10
2018-07-25T22:58:36.353Z,12.43
2018-07-25T23:01:04.543Z,11.50
2018-07-25T23:03:32.755Z,12.40
2018-07-25T23:06:00.960Z,12.43
2018-07-25T23:08:29.167Z,12.47
2018-07-25T23:10:57.370Z,12.60
2018-07-25T23:13:25.564Z,12.77
2018-07-25T23:15:53.772Z,12.40
2018-07-25T23:18:21.955Z,11.77
2018-07-25T23:20:50.119Z,12.50
2018-07-25T23:23:18.300Z,13.53
2018-07-25T23:25:46.470Z,13.43
2018-07-25T23:28:14.655Z,12.93
2018-07-25T23:30:42.814Z,13.73
2018-07-25T23:33:11.033Z,13.33
2018-07-25T23:35:39.184Z,13.67
2018-07-25T23:38:07.712Z,14.70
2018-07-25T23:40:35.884Z,14.53
2018-07-25T23:43:04.051Z,16.43
2018-07-25T23:45:32.235Z,16.37
2018-07-25T23:48:00.401Z,16.87
2018-07-25T23:50:28.587Z,18.27
2018-07-25T23:52:56.783Z,17.30
2018-07-25T23:55:24.943Z,17.83
2018-07-25T23:57:53.113Z,17.90
